Pagrindinis puslapis
METAR-TAF:

METAR-TAF

Oro uostai :

Kamišlis, Sirija

platuma: 37-03N, ilguma: 041-13E, Aukštis: 455 m

Dabartinis oras

Ataskaita buvo paskelbta 55 minutes, ne 09:00 UTC
Vėjas 14 kt iš Rytų/Šiaurės Rytų
Temperatūra 17°C
Drėgmė 32%
Slėgis 1014 hPa
Matomumas 10 km arba daugiau
nėra debesų žemiau 1500 m ir nėra kamuolinių lietaus debesų

METAR: OSKL 260900Z 06014KT CAVOK 17/M00 Q1014

Laikas: 11:55 (09:55 UTC)


TAF: trūkstamas

Orai ataskaitas ir orų prognozės (METAR, TAF).

turimą stotys yra geltonos ir raudonos taškus žemėlapyje.

Perkelti pele per norėdami pamatyti stoties vardą.

Tada spustelėkite, norėdami matyti oro stebėjimo ir prognozės.

Norėdami pakeisti žemėlapį: spustelėkite ant žalios mygtukų su juodo kryžiaus žemyn,; žalią mygtuką su brūkšneliu, jei norite nutolinti; arba žalių rodyklių gretimoms žemėlapius.


METAR-TAF: